sensor_id;sensor_type;location;lat;lon;timestamp;temperature;humidity
46117;DHT22;32591;48.102;11.772;2023-08-01T00:02:00;19.20;99.90
46117;DHT22;32591;48.102;11.772;2023-08-01T00:04:28;19.20;99.90
46117;DHT22;32591;48.102;11.772;2023-08-01T00:06:55;19.20;99.90
46117;DHT22;32591;48.102;11.772;2023-08-01T00:09:23;19.20;99.90
46117;DHT22;32591;48.102;11.772;2023-08-01T00:11:50;19.10;99.90
46117;DHT22;32591;48.102;11.772;2023-08-01T00:14:17;19.10;99.90
46117;DHT22;32591;48.102;11.772;2023-08-01T00:16:45;19.20;99.90
46117;DHT22;32591;48.102;11.772;2023-08-01T00:19:13;19.20;99.90
46117;DHT22;32591;48.102;11.772;2023-08-01T00:21:40;19.20;99.90
46117;DHT22;32591;48.102;11.772;2023-08-01T00:24:07;19.20;99.90
46117;DHT22;32591;48.102;11.772;2023-08-01T00:26:35;19.30;99.90
46117;DHT22;32591;48.102;11.772;2023-08-01T00:29:02;19.30;99.90
46117;DHT22;32591;48.102;11.772;2023-08-01T00:31:29;19.20;99.90
46117;DHT22;32591;48.102;11.772;2023-08-01T00:33:56;19.30;99.90
46117;DHT22;32591;48.102;11.772;2023-08-01T00:36:23;19.30;99.90
46117;DHT22;32591;48.102;11.772;2023-08-01T00:38:50;19.30;99.90
46117;DHT22;32591;48.102;11.772;2023-08-01T00:41:17;19.30;99.90
46117;DHT22;32591;48.102;11.772;2023-08-01T00:43:46;19.30;99.90
46117;DHT22;32591;48.102;11.772;2023-08-01T00:46:13;19.30;99.90
46117;DHT22;32591;48.102;11.772;2023-08-01T00:48:40;19.30;99.90
46117;DHT22;32591;48.102;11.772;2023-08-01T00:51:08;19.30;99.90
46117;DHT22;32591;48.102;11.772;2023-08-01T00:53:38;19.30;99.90
46117;DHT22;32591;48.102;11.772;2023-08-01T00:56:05;19.40;99.90
46117;DHT22;32591;48.102;11.772;2023-08-01T00:58:32;19.30;99.90
46117;DHT22;32591;48.102;11.772;2023-08-01T01:01:00;19.30;99.90
46117;DHT22;32591;48.102;11.772;2023-08-01T01:03:29;19.30;99.90
46117;DHT22;32591;48.102;11.772;2023-08-01T01:06:01;19.30;99.90
46117;DHT22;32591;48.102;11.772;2023-08-01T01:08:31;19.10;99.90
46117;DHT22;32591;48.102;11.772;2023-08-01T01:10:58;19.20;99.90
46117;DHT22;32591;48.102;11.772;2023-08-01T01:13:25;19.10;99.90
46117;DHT22;32591;48.102;11.772;2023-08-01T01:15:52;19.10;99.90
46117;DHT22;32591;48.102;11.772;2023-08-01T01:18:20;19.20;99.90
46117;DHT22;32591;48.102;11.772;2023-08-01T01:20:48;19.30;99.90
46117;DHT22;32591;48.102;11.772;2023-08-01T01:23:16;19.30;99.90
46117;DHT22;32591;48.102;11.772;2023-08-01T01:25:44;19.30;99.90
46117;DHT22;32591;48.102;11.772;2023-08-01T01:28:13;19.30;99.90
46117;DHT22;32591;48.102;11.772;2023-08-01T01:30:42;19.30;99.90
46117;DHT22;32591;48.102;11.772;2023-08-01T01:33:10;19.20;99.90
46117;DHT22;32591;48.102;11.772;2023-08-01T01:35:37;19.20;99.90
46117;DHT22;32591;48.102;11.772;2023-08-01T01:38:05;19.20;99.90
46117;DHT22;32591;48.102;11.772;2023-08-01T01:40:32;19.20;99.90
46117;DHT22;32591;48.102;11.772;2023-08-01T01:43:00;19.20;99.90
46117;DHT22;32591;48.102;11.772;2023-08-01T01:45:28;19.30;99.90
46117;DHT22;32591;48.102;11.772;2023-08-01T01:47:55;19.20;99.90
46117;DHT22;32591;48.102;11.772;2023-08-01T01:50:22;19.20;99.90
46117;DHT22;32591;48.102;11.772;2023-08-01T01:52:49;19.30;99.90
46117;DHT22;32591;48.102;11.772;2023-08-01T01:55:17;19.30;99.90
46117;DHT22;32591;48.102;11.772;2023-08-01T01:57:44;19.30;99.90
46117;DHT22;32591;48.102;11.772;2023-08-01T02:00:13;19.30;99.90
46117;DHT22;32591;48.102;11.772;2023-08-01T02:02:40;19.20;99.90
46117;DHT22;32591;48.102;11.772;2023-08-01T02:05:07;19.20;99.90
46117;DHT22;32591;48.102;11.772;2023-08-01T02:07:34;19.30;99.90
46117;DHT22;32591;48.102;11.772;2023-08-01T02:10:01;19.20;99.90
46117;DHT22;32591;48.102;11.772;2023-08-01T02:12:30;19.20;99.90
46117;DHT22;32591;48.102;11.772;2023-08-01T02:14:57;19.20;99.90
46117;DHT22;32591;48.102;11.772;2023-08-01T02:17:24;19.20;99.90
46117;DHT22;32591;48.102;11.772;2023-08-01T02:19:51;19.10;99.90
46117;DHT22;32591;48.102;11.772;2023-08-01T02:22:18;19.10;99.90
46117;DHT22;32591;48.102;11.772;2023-08-01T02:24:46;19.10;99.90
46117;DHT22;32591;48.102;11.772;2023-08-01T02:27:13;19.10;99.90
46117;DHT22;32591;48.102;11.772;2023-08-01T02:29:41;19.10;99.90
46117;DHT22;32591;48.102;11.772;2023-08-01T02:32:09;19.00;99.90
46117;DHT22;32591;48.102;11.772;2023-08-01T02:34:37;19.00;99.90
46117;DHT22;32591;48.102;11.772;2023-08-01T02:37:04;19.00;99.90
46117;DHT22;32591;48.102;11.772;2023-08-01T02:39:32;19.00;99.90
46117;DHT22;32591;48.102;11.772;2023-08-01T02:41:59;19.10;99.90
46117;DHT22;32591;48.102;11.772;2023-08-01T02:44:26;19.00;99.90
46117;DHT22;32591;48.102;11.772;2023-08-01T02:46:55;19.00;99.90
46117;DHT22;32591;48.102;11.772;2023-08-01T02:49:22;19.10;99.90
46117;DHT22;32591;48.102;11.772;2023-08-01T02:51:49;19.10;99.90
46117;DHT22;32591;48.102;11.772;2023-08-01T02:54:16;19.10;99.90
46117;DHT22;32591;48.102;11.772;2023-08-01T02:56:43;19.10;99.90
46117;DHT22;32591;48.102;11.772;2023-08-01T02:59:10;19.10;99.90
46117;DHT22;32591;48.102;11.772;2023-08-01T03:01:38;19.10;99.90
46117;DHT22;32591;48.102;11.772;2023-08-01T03:04:07;19.10;99.90
46117;DHT22;32591;48.102;11.772;2023-08-01T03:06:34;19.10;99.90
46117;DHT22;32591;48.102;11.772;2023-08-01T03:09:01;19.10;99.90
46117;DHT22;32591;48.102;11.772;2023-08-01T03:11:28;19.10;99.90
46117;DHT22;32591;48.102;11.772;2023-08-01T03:13:55;19.10;99.90
46117;DHT22;32591;48.102;11.772;2023-08-01T03:16:22;19.10;99.90
46117;DHT22;32591;48.102;11.772;2023-08-01T03:18:48;19.10;99.90
46117;DHT22;32591;48.102;11.772;2023-08-01T03:21:17;19.00;99.90
46117;DHT22;32591;48.102;11.772;2023-08-01T03:23:44;19.00;99.90
46117;DHT22;32591;48.102;11.772;2023-08-01T03:26:11;19.00;99.90
46117;DHT22;32591;48.102;11.772;2023-08-01T03:28:38;19.00;99.90
46117;DHT22;32591;48.102;11.772;2023-08-01T03:31:05;19.00;99.90
46117;DHT22;32591;48.102;11.772;2023-08-01T03:33:32;19.00;99.90
46117;DHT22;32591;48.102;11.772;2023-08-01T03:35:59;19.00;99.90
46117;DHT22;32591;48.102;11.772;2023-08-01T03:38:28;19.00;99.90
46117;DHT22;32591;48.102;11.772;2023-08-01T03:40:55;18.90;99.90
46117;DHT22;32591;48.102;11.772;2023-08-01T03:43:22;18.90;99.90
46117;DHT22;32591;48.102;11.772;2023-08-01T03:45:49;18.80;99.90
46117;DHT22;32591;48.102;11.772;2023-08-01T03:48:16;18.60;99.90
46117;DHT22;32591;48.102;11.772;2023-08-01T03:50:43;18.60;99.90
46117;DHT22;32591;48.102;11.772;2023-08-01T03:53:10;18.50;99.90
46117;DHT22;32591;48.102;11.772;2023-08-01T03:55:38;18.40;99.90
46117;DHT22;32591;48.102;11.772;2023-08-01T03:58:05;18.40;99.90
46117;DHT22;32591;48.102;11.772;2023-08-01T04:00:32;18.50;99.90
46117;DHT22;32591;48.102;11.772;2023-08-01T04:02:59;18.60;99.90
46117;DHT22;32591;48.102;11.772;2023-08-01T04:05:27;18.70;99.90
46117;DHT22;32591;48.102;11.772;2023-08-01T04:07:54;18.70;99.90
46117;DHT22;32591;48.102;11.772;2023-08-01T04:10:21;18.80;99.90
46117;DHT22;32591;48.102;11.772;2023-08-01T04:12:49;18.70;99.90
46117;DHT22;32591;48.102;11.772;2023-08-01T04:15:16;18.70;99.90
46117;DHT22;32591;48.102;11.772;2023-08-01T04:17:43;18.70;99.90
46117;DHT22;32591;48.102;11.772;2023-08-01T04:20:11;18.50;99.90
46117;DHT22;32591;48.102;11.772;2023-08-01T04:22:38;18.40;99.90
46117;DHT22;32591;48.102;11.772;2023-08-01T04:25:05;18.40;99.90
46117;DHT22;32591;48.102;11.772;2023-08-01T04:27:36;18.40;99.90
46117;DHT22;32591;48.102;11.772;2023-08-01T04:30:05;18.40;99.90
46117;DHT22;32591;48.102;11.772;2023-08-01T04:32:33;18.30;99.90
46117;DHT22;32591;48.102;11.772;2023-08-01T04:35:00;18.20;99.90
46117;DHT22;32591;48.102;11.772;2023-08-01T04:37:27;18.30;99.90
46117;DHT22;32591;48.102;11.772;2023-08-01T04:39:54;18.30;99.90
46117;DHT22;32591;48.102;11.772;2023-08-01T04:42:21;18.10;99.90
46117;DHT22;32591;48.102;11.772;2023-08-01T04:44:48;18.10;99.90
46117;DHT22;32591;48.102;11.772;2023-08-01T04:47:16;18.00;99.90
46117;DHT22;32591;48.102;11.772;2023-08-01T04:49:43;17.90;99.90
46117;DHT22;32591;48.102;11.772;2023-08-01T04:52:10;18.00;99.90
46117;DHT22;32591;48.102;11.772;2023-08-01T04:54:37;18.10;99.90
46117;DHT22;32591;48.102;11.772;2023-08-01T04:57:04;18.10;99.90
46117;DHT22;32591;48.102;11.772;2023-08-01T04:59:32;18.10;99.90
46117;DHT22;32591;48.102;11.772;2023-08-01T05:01:59;18.20;99.90
46117;DHT22;32591;48.102;11.772;2023-08-01T05:04:27;18.20;99.90
46117;DHT22;32591;48.102;11.772;2023-08-01T05:06:54;18.30;99.90
46117;DHT22;32591;48.102;11.772;2023-08-01T05:09:21;18.30;99.90
46117;DHT22;32591;48.102;11.772;2023-08-01T05:11:48;18.30;99.90
46117;DHT22;32591;48.102;11.772;2023-08-01T05:14:15;18.40;99.90
46117;DHT22;32591;48.102;11.772;2023-08-01T05:16:42;18.60;99.90
46117;DHT22;32591;48.102;11.772;2023-08-01T05:19:09;18.40;99.90
46117;DHT22;32591;48.102;11.772;2023-08-01T05:21:37;18.50;99.90
46117;DHT22;32591;48.102;11.772;2023-08-01T05:24:04;18.40;99.90
46117;DHT22;32591;48.102;11.772;2023-08-01T05:26:31;18.40;99.90
46117;DHT22;32591;48.102;11.772;2023-08-01T05:28:58;18.30;99.90
46117;DHT22;32591;48.102;11.772;2023-08-01T05:31:25;18.30;99.90
46117;DHT22;32591;48.102;11.772;2023-08-01T05:33:52;18.20;99.90
46117;DHT22;32591;48.102;11.772;2023-08-01T05:36:19;18.10;99.90
46117;DHT22;32591;48.102;11.772;2023-08-01T05:38:47;18.00;99.90
46117;DHT22;32591;48.102;11.772;2023-08-01T05:41:14;18.00;99.90
46117;DHT22;32591;48.102;11.772;2023-08-01T05:43:41;17.90;99.90
46117;DHT22;32591;48.102;11.772;2023-08-01T05:46:08;17.90;99.90
46117;DHT22;32591;48.102;11.772;2023-08-01T05:48:35;17.90;99.90
46117;DHT22;32591;48.102;11.772;2023-08-01T05:51:02;17.90;99.90
46117;DHT22;32591;48.102;11.772;2023-08-01T05:53:29;17.90;99.90
46117;DHT22;32591;48.102;11.772;2023-08-01T05:55:57;17.80;99.90
46117;DHT22;32591;48.102;11.772;2023-08-01T05:58:24;17.70;99.90
46117;DHT22;32591;48.102;11.772;2023-08-01T06:00:51;17.60;99.90
46117;DHT22;32591;48.102;11.772;2023-08-01T06:03:18;17.60;99.90
46117;DHT22;32591;48.102;11.772;2023-08-01T06:05:45;17.50;99.90
46117;DHT22;32591;48.102;11.772;2023-08-01T06:08:12;17.50;99.90
46117;DHT22;32591;48.102;11.772;2023-08-01T06:10:41;17.50;99.90
46117;DHT22;32591;48.102;11.772;2023-08-01T06:13:10;17.50;99.90
46117;DHT22;32591;48.102;11.772;2023-08-01T06:15:36;17.50;99.90
46117;DHT22;32591;48.102;11.772;2023-08-01T06:18:03;17.40;99.90
46117;DHT22;32591;48.102;11.772;2023-08-01T06:20:31;17.40;99.90
46117;DHT22;32591;48.102;11.772;2023-08-01T06:22:58;17.40;99.90
46117;DHT22;32591;48.102;11.772;2023-08-01T06:25:25;17.40;99.90
46117;DHT22;32591;48.102;11.772;2023-08-01T06:27:52;17.40;99.90
46117;DHT22;32591;48.102;11.772;2023-08-01T06:30:21;17.30;99.90
46117;DHT22;32591;48.102;11.772;2023-08-01T06:32:48;17.50;99.90
46117;DHT22;32591;48.102;11.772;2023-08-01T06:35:15;17.50;99.90
46117;DHT22;32591;48.102;11.772;2023-08-01T06:37:42;17.40;99.90
46117;DHT22;32591;48.102;11.772;2023-08-01T06:40:09;17.40;99.90
46117;DHT22;32591;48.102;11.772;2023-08-01T06:42:37;17.30;99.90
46117;DHT22;32591;48.102;11.772;2023-08-01T06:45:04;17.40;99.90
46117;DHT22;32591;48.102;11.772;2023-08-01T06:47:33;17.40;99.90
46117;DHT22;32591;48.102;11.772;2023-08-01T06:50:00;17.50;99.90
46117;DHT22;32591;48.102;11.772;2023-08-01T06:52:28;17.40;99.90
46117;DHT22;32591;48.102;11.772;2023-08-01T06:54:55;17.50;99.90
46117;DHT22;32591;48.102;11.772;2023-08-01T06:57:23;17.60;99.90
46117;DHT22;32591;48.102;11.772;2023-08-01T06:59:50;17.60;99.90
46117;DHT22;32591;48.102;11.772;2023-08-01T07:02:17;17.60;99.90
46117;DHT22;32591;48.102;11.772;2023-08-01T07:04:45;17.50;99.90
46117;DHT22;32591;48.102;11.772;2023-08-01T07:07:12;17.50;99.90
46117;DHT22;32591;48.102;11.772;2023-08-01T07:09:39;17.50;99.90
46117;DHT22;32591;48.102;11.772;2023-08-01T07:12:07;17.50;99.90
46117;DHT22;32591;48.102;11.772;2023-08-01T07:14:34;17.40;99.90
46117;DHT22;32591;48.102;11.772;2023-08-01T07:17:02;17.30;99.90
46117;DHT22;32591;48.102;11.772;2023-08-01T07:19:29;17.40;99.90
46117;DHT22;32591;48.102;11.772;2023-08-01T07:21:57;17.40;99.90
46117;DHT22;32591;48.102;11.772;2023-08-01T07:24:24;17.40;99.90
46117;DHT22;32591;48.102;11.772;2023-08-01T07:26:51;17.40;99.90
46117;DHT22;32591;48.102;11.772;2023-08-01T07:29:18;17.40;99.90
46117;DHT22;32591;48.102;11.772;2023-08-01T07:31:45;17.40;99.90
46117;DHT22;32591;48.102;11.772;2023-08-01T07:34:12;17.50;99.90
46117;DHT22;32591;48.102;11.772;2023-08-01T07:36:39;17.60;99.90
46117;DHT22;32591;48.102;11.772;2023-08-01T07:39:07;17.40;99.90
46117;DHT22;32591;48.102;11.772;2023-08-01T07:41:34;17.50;99.90
46117;DHT22;32591;48.102;11.772;2023-08-01T07:44:02;17.40;99.90
46117;DHT22;32591;48.102;11.772;2023-08-01T07:46:29;17.40;99.90
46117;DHT22;32591;48.102;11.772;2023-08-01T07:48:56;17.40;99.90
46117;DHT22;32591;48.102;11.772;2023-08-01T07:51:24;17.40;99.90
46117;DHT22;32591;48.102;11.772;2023-08-01T07:53:52;17.40;99.90
46117;DHT22;32591;48.102;11.772;2023-08-01T07:56:23;17.50;99.90
46117;DHT22;32591;48.102;11.772;2023-08-01T07:58:50;17.50;99.90
46117;DHT22;32591;48.102;11.772;2023-08-01T08:01:16;17.50;99.90
46117;DHT22;32591;48.102;11.772;2023-08-01T08:03:43;17.50;99.90
46117;DHT22;32591;48.102;11.772;2023-08-01T08:06:11;17.60;99.90
46117;DHT22;32591;48.102;11.772;2023-08-01T08:08:37;17.70;99.90
46117;DHT22;32591;48.102;11.772;2023-08-01T08:11:04;17.70;99.90
46117;DHT22;32591;48.102;11.772;2023-08-01T08:13:33;17.70;99.90
46117;DHT22;32591;48.102;11.772;2023-08-01T08:16:00;17.80;99.90
46117;DHT22;32591;48.102;11.772;2023-08-01T08:18:27;17.70;99.90
46117;DHT22;32591;48.102;11.772;2023-08-01T08:20:54;17.80;99.90
46117;DHT22;32591;48.102;11.772;2023-08-01T08:23:21;17.80;99.90
46117;DHT22;32591;48.102;11.772;2023-08-01T08:25:48;17.80;99.90
46117;DHT22;32591;48.102;11.772;2023-08-01T08:28:27;18.10;99.90
46117;DHT22;32591;48.102;11.772;2023-08-01T08:30:56;18.10;99.90
46117;DHT22;32591;48.102;11.772;2023-08-01T08:33:23;18.30;99.90
46117;DHT22;32591;48.102;11.772;2023-08-01T08:35:50;18.30;99.90
46117;DHT22;32591;48.102;11.772;2023-08-01T08:38:18;18.40;99.90
46117;DHT22;32591;48.102;11.772;2023-08-01T08:40:55;18.40;99.90
46117;DHT22;32591;48.102;11.772;2023-08-01T08:43:26;18.50;99.90
46117;DHT22;32591;48.102;11.772;2023-08-01T08:45:58;18.60;99.90
46117;DHT22;32591;48.102;11.772;2023-08-01T08:48:28;18.70;99.90
46117;DHT22;32591;48.102;11.772;2023-08-01T08:50:57;18.90;99.90
46117;DHT22;32591;48.102;11.772;2023-08-01T08:53:25;19.00;99.90
46117;DHT22;32591;48.102;11.772;2023-08-01T08:55:53;19.10;99.90
46117;DHT22;32591;48.102;11.772;2023-08-01T08:58:20;19.10;99.90
46117;DHT22;32591;48.102;11.772;2023-08-01T09:00:47;19.00;99.90
46117;DHT22;32591;48.102;11.772;2023-08-01T09:03:16;19.10;99.90
46117;DHT22;32591;48.102;11.772;2023-08-01T09:05:47;19.10;99.90
46117;DHT22;32591;48.102;11.772;2023-08-01T09:08:17;19.20;99.90
46117;DHT22;32591;48.102;11.772;2023-08-01T09:10:46;19.30;99.90
46117;DHT22;32591;48.102;11.772;2023-08-01T09:13:14;19.20;99.90
46117;DHT22;32591;48.102;11.772;2023-08-01T09:15:41;19.10;99.90
46117;DHT22;32591;48.102;11.772;2023-08-01T09:18:10;19.10;99.90
46117;DHT22;32591;48.102;11.772;2023-08-01T09:20:42;19.00;99.90
46117;DHT22;32591;48.102;11.772;2023-08-01T09:23:12;19.00;99.90
46117;DHT22;32591;48.102;11.772;2023-08-01T09:25:40;19.00;99.90
46117;DHT22;32591;48.102;11.772;2023-08-01T09:28:25;19.00;99.90
46117;DHT22;32591;48.102;11.772;2023-08-01T09:30:53;19.00;99.90
46117;DHT22;32591;48.102;11.772;2023-08-01T09:33:22;19.10;99.90
46117;DHT22;32591;48.102;11.772;2023-08-01T09:35:51;19.10;99.90
46117;DHT22;32591;48.102;11.772;2023-08-01T09:38:18;19.10;99.90
46117;DHT22;32591;48.102;11.772;2023-08-01T09:40:46;19.20;99.90
46117;DHT22;32591;48.102;11.772;2023-08-01T09:43:14;19.20;99.90
46117;DHT22;32591;48.102;11.772;2023-08-01T09:45:52;19.30;99.90
46117;DHT22;32591;48.102;11.772;2023-08-01T09:48:24;19.20;99.90
46117;DHT22;32591;48.102;11.772;2023-08-01T09:51:04;19.30;99.90
46117;DHT22;32591;48.102;11.772;2023-08-01T09:53:32;19.30;99.90
46117;DHT22;32591;48.102;11.772;2023-08-01T09:56:00;19.30;99.90
46117;DHT22;32591;48.102;11.772;2023-08-01T09:58:31;19.30;99.90
46117;DHT22;32591;48.102;11.772;2023-08-01T10:01:00;19.30;99.90
46117;DHT22;32591;48.102;11.772;2023-08-01T10:03:28;19.30;99.90
46117;DHT22;32591;48.102;11.772;2023-08-01T10:05:58;19.20;99.90
46117;DHT22;32591;48.102;11.772;2023-08-01T10:08:25;19.30;99.90
46117;DHT22;32591;48.102;11.772;2023-08-01T10:10:53;19.40;99.90
46117;DHT22;32591;48.102;11.772;2023-08-01T10:13:23;19.40;99.90
46117;DHT22;32591;48.102;11.772;2023-08-01T10:15:51;19.50;99.90
46117;DHT22;32591;48.102;11.772;2023-08-01T10:18:18;19.40;99.90
46117;DHT22;32591;48.102;11.772;2023-08-01T10:20:46;19.40;99.90
46117;DHT22;32591;48.102;11.772;2023-08-01T10:23:16;19.30;99.90
46117;DHT22;32591;48.102;11.772;2023-08-01T10:25:44;19.20;99.90
46117;DHT22;32591;48.102;11.772;2023-08-01T10:28:12;19.00;99.90
46117;DHT22;32591;48.102;11.772;2023-08-01T10:30:38;19.00;99.90
46117;DHT22;32591;48.102;11.772;2023-08-01T10:33:05;19.00;99.90
46117;DHT22;32591;48.102;11.772;2023-08-01T10:35:38;19.00;99.90
46117;DHT22;32591;48.102;11.772;2023-08-01T10:38:08;19.10;99.90
46117;DHT22;32591;48.102;11.772;2023-08-01T10:40:39;19.10;99.90
46117;DHT22;32591;48.102;11.772;2023-08-01T10:43:19;19.20;99.90
46117;DHT22;32591;48.102;11.772;2023-08-01T10:45:47;19.30;99.90
46117;DHT22;32591;48.102;11.772;2023-08-01T10:48:15;19.40;99.90
46117;DHT22;32591;48.102;11.772;2023-08-01T10:50:42;19.50;99.90
46117;DHT22;32591;48.102;11.772;2023-08-01T10:53:09;19.50;99.90
46117;DHT22;32591;48.102;11.772;2023-08-01T10:55:42;19.60;99.90
46117;DHT22;32591;48.102;11.772;2023-08-01T10:58:10;19.60;99.90
46117;DHT22;32591;48.102;11.772;2023-08-01T11:00:38;19.50;99.90
46117;DHT22;32591;48.102;11.772;2023-08-01T11:03:05;19.30;99.90
46117;DHT22;32591;48.102;11.772;2023-08-01T11:05:32;19.20;99.90
46117;DHT22;32591;48.102;11.772;2023-08-01T11:08:00;19.10;99.90
46117;DHT22;32591;48.102;11.772;2023-08-01T11:10:29;19.00;99.90
46117;DHT22;32591;48.102;11.772;2023-08-01T11:12:59;19.00;99.90
46117;DHT22;32591;48.102;11.772;2023-08-01T11:15:26;18.90;99.90
46117;DHT22;32591;48.102;11.772;2023-08-01T11:17:54;18.90;99.90
46117;DHT22;32591;48.102;11.772;2023-08-01T11:20:23;18.80;99.90
46117;DHT22;32591;48.102;11.772;2023-08-01T11:22:53;18.80;99.90
46117;DHT22;32591;48.102;11.772;2023-08-01T11:25:37;18.80;99.90
46117;DHT22;32591;48.102;11.772;2023-08-01T11:28:11;18.50;99.90
46117;DHT22;32591;48.102;11.772;2023-08-01T11:30:38;18.40;99.90
46117;DHT22;32591;48.102;11.772;2023-08-01T11:33:15;18.30;99.90
46117;DHT22;32591;48.102;11.772;2023-08-01T11:35:43;18.30;99.90
46117;DHT22;32591;48.102;11.772;2023-08-01T11:38:10;18.30;99.90
46117;DHT22;32591;48.102;11.772;2023-08-01T11:40:38;18.30;99.90
46117;DHT22;32591;48.102;11.772;2023-08-01T11:43:05;18.30;99.90
46117;DHT22;32591;48.102;11.772;2023-08-01T11:45:33;18.30;99.90
46117;DHT22;32591;48.102;11.772;2023-08-01T11:48:01;18.40;99.90
46117;DHT22;32591;48.102;11.772;2023-08-01T11:50:28;18.40;99.90
46117;DHT22;32591;48.102;11.772;2023-08-01T11:52:55;18.40;99.90
46117;DHT22;32591;48.102;11.772;2023-08-01T11:55:25;18.40;99.90
46117;DHT22;32591;48.102;11.772;2023-08-01T11:57:57;18.30;99.90
46117;DHT22;32591;48.102;11.772;2023-08-01T12:00:25;18.30;99.90
46117;DHT22;32591;48.102;11.772;2023-08-01T12:03:05;18.30;99.90
46117;DHT22;32591;48.102;11.772;2023-08-01T12:05:31;18.30;99.90
46117;DHT22;32591;48.102;11.772;2023-08-01T12:08:08;18.20;99.90
46117;DHT22;32591;48.102;11.772;2023-08-01T12:10:39;18.30;99.90
46117;DHT22;32591;48.102;11.772;2023-08-01T12:13:19;18.40;99.90
46117;DHT22;32591;48.102;11.772;2023-08-01T12:15:47;18.40;99.90
46117;DHT22;32591;48.102;11.772;2023-08-01T12:18:21;18.40;99.90
46117;DHT22;32591;48.102;11.772;2023-08-01T12:20:49;18.40;99.90
46117;DHT22;32591;48.102;11.772;2023-08-01T12:23:16;18.40;99.90
46117;DHT22;32591;48.102;11.772;2023-08-01T12:25:43;18.50;99.90
46117;DHT22;32591;48.102;11.772;2023-08-01T12:28:10;18.70;99.90
46117;DHT22;32591;48.102;11.772;2023-08-01T12:30:39;18.90;99.90
46117;DHT22;32591;48.102;11.772;2023-08-01T12:33:06;19.00;99.90
46117;DHT22;32591;48.102;11.772;2023-08-01T12:35:39;19.30;99.90
46117;DHT22;32591;48.102;11.772;2023-08-01T12:38:06;19.30;99.90
46117;DHT22;32591;48.102;11.772;2023-08-01T12:40:33;19.40;99.90
46117;DHT22;32591;48.102;11.772;2023-08-01T12:43:00;19.50;99.90
46117;DHT22;32591;48.102;11.772;2023-08-01T12:45:28;19.60;99.90
46117;DHT22;32591;48.102;11.772;2023-08-01T12:47:55;19.50;99.90
46117;DHT22;32591;48.102;11.772;2023-08-01T12:50:22;19.60;99.90
46117;DHT22;32591;48.102;11.772;2023-08-01T12:52:50;19.60;99.90
46117;DHT22;32591;48.102;11.772;2023-08-01T12:55:17;19.60;99.90
46117;DHT22;32591;48.102;11.772;2023-08-01T12:57:44;19.60;99.90
46117;DHT22;32591;48.102;11.772;2023-08-01T13:00:11;19.70;99.90
46117;DHT22;32591;48.102;11.772;2023-08-01T13:02:39;19.90;99.90
46117;DHT22;32591;48.102;11.772;2023-08-01T13:05:06;20.00;99.90
46117;DHT22;32591;48.102;11.772;2023-08-01T13:07:33;20.00;99.90
46117;DHT22;32591;48.102;11.772;2023-08-01T13:10:02;20.10;99.90
46117;DHT22;32591;48.102;11.772;2023-08-01T13:12:29;20.20;99.90
46117;DHT22;32591;48.102;11.772;2023-08-01T13:14:56;20.40;99.90
46117;DHT22;32591;48.102;11.772;2023-08-01T13:17:24;20.40;99.90
46117;DHT22;32591;48.102;11.772;2023-08-01T13:19:51;20.30;99.90
46117;DHT22;32591;48.102;11.772;2023-08-01T13:22:18;20.20;99.90
46117;DHT22;32591;48.102;11.772;2023-08-01T13:24:45;20.20;99.90
46117;DHT22;32591;48.102;11.772;2023-08-01T13:27:14;20.10;99.90
46117;DHT22;32591;48.102;11.772;2023-08-01T13:29:41;20.00;99.90
46117;DHT22;32591;48.102;11.772;2023-08-01T13:32:08;19.90;99.90
46117;DHT22;32591;48.102;11.772;2023-08-01T13:34:35;19.80;99.90
46117;DHT22;32591;48.102;11.772;2023-08-01T13:37:02;19.90;99.90
46117;DHT22;32591;48.102;11.772;2023-08-01T13:39:29;20.00;99.90
46117;DHT22;32591;48.102;11.772;2023-08-01T13:41:56;20.30;99.90
46117;DHT22;32591;48.102;11.772;2023-08-01T13:44:24;20.70;99.90
46117;DHT22;32591;48.102;11.772;2023-08-01T13:46:51;21.10;99.90
46117;DHT22;32591;48.102;11.772;2023-08-01T13:49:18;21.20;99.90
46117;DHT22;32591;48.102;11.772;2023-08-01T13:51:45;21.20;99.90
46117;DHT22;32591;48.102;11.772;2023-08-01T13:54:12;21.00;99.90
46117;DHT22;32591;48.102;11.772;2023-08-01T13:56:39;21.00;99.90
46117;DHT22;32591;48.102;11.772;2023-08-01T13:59:06;21.00;99.90
46117;DHT22;32591;48.102;11.772;2023-08-01T14:01:35;20.90;99.90
46117;DHT22;32591;48.102;11.772;2023-08-01T14:04:03;21.10;99.90
46117;DHT22;32591;48.102;11.772;2023-08-01T14:06:30;21.20;99.90
46117;DHT22;32591;48.102;11.772;2023-08-01T14:08:57;21.60;99.90
46117;DHT22;32591;48.102;11.772;2023-08-01T14:11:24;22.10;99.90
46117;DHT22;32591;48.102;11.772;2023-08-01T14:13:51;22.50;99.90
46117;DHT22;32591;48.102;11.772;2023-08-01T14:16:18;22.60;99.90
46117;DHT22;32591;48.102;11.772;2023-08-01T14:18:46;22.90;99.90
46117;DHT22;32591;48.102;11.772;2023-08-01T14:21:13;22.90;99.90
46117;DHT22;32591;48.102;11.772;2023-08-01T14:23:40;22.50;99.90
46117;DHT22;32591;48.102;11.772;2023-08-01T14:26:08;22.10;99.90
46117;DHT22;32591;48.102;11.772;2023-08-01T14:28:35;22.00;99.90
46117;DHT22;32591;48.102;11.772;2023-08-01T14:31:03;21.80;99.90
46117;DHT22;32591;48.102;11.772;2023-08-01T14:33:31;22.00;99.90
46117;DHT22;32591;48.102;11.772;2023-08-01T14:35:59;21.90;99.90
46117;DHT22;32591;48.102;11.772;2023-08-01T14:38:26;21.80;99.90
46117;DHT22;32591;48.102;11.772;2023-08-01T14:40:53;21.60;99.90
46117;DHT22;32591;48.102;11.772;2023-08-01T14:43:20;21.60;99.90
46117;DHT22;32591;48.102;11.772;2023-08-01T14:45:47;21.50;99.90
46117;DHT22;32591;48.102;11.772;2023-08-01T14:48:14;21.20;99.90
46117;DHT22;32591;48.102;11.772;2023-08-01T14:50:41;21.20;99.90
46117;DHT22;32591;48.102;11.772;2023-08-01T14:53:09;21.10;99.90
46117;DHT22;32591;48.102;11.772;2023-08-01T14:55:36;20.90;99.90
46117;DHT22;32591;48.102;11.772;2023-08-01T14:58:03;20.80;99.90
46117;DHT22;32591;48.102;11.772;2023-08-01T15:00:34;20.70;99.90
46117;DHT22;32591;48.102;11.772;2023-08-01T15:03:01;20.60;99.90
46117;DHT22;32591;48.102;11.772;2023-08-01T15:05:29;20.80;99.90
46117;DHT22;32591;48.102;11.772;2023-08-01T15:07:56;21.30;99.90
46117;DHT22;32591;48.102;11.772;2023-08-01T15:10:24;21.40;99.90
46117;DHT22;32591;48.102;11.772;2023-08-01T15:12:51;21.60;99.90
46117;DHT22;32591;48.102;11.772;2023-08-01T15:15:18;21.40;99.90
46117;DHT22;32591;48.102;11.772;2023-08-01T15:17:45;21.10;99.90
46117;DHT22;32591;48.102;11.772;2023-08-01T15:20:12;21.00;99.90